Time;durP1;ratioP1;P1;durP2;ratioP2;P2;SDS_P1;SDS_P2;PMS_P1;PMS_P2;Temp;Humidity;BMP_temperature;BMP_pressure;BME280_temperature;BME280_humidity;BME280_pressure;Samples;Min_cycle;Max_cycle;Signal;HPM_P1;HPM_P2
2023/11/16 00:01:58;;;;;;;4.43;4.03;;;9.40;99.90;;;;;;5035342;28;20497;-65
2023/11/16 00:04:27;;;;;;;6.10;4.53;;;9.50;99.90;;;;;;5029073;28;20470;-65
2023/11/16 00:06:56;;;;;;;6.50;3.67;;;9.50;99.90;;;;;;5035967;28;20561;-65
2023/11/16 00:09:24;;;;;;;4.03;3.70;;;9.50;99.90;;;;;;5035236;28;21331;-66
2023/11/16 00:11:52;;;;;;;4.80;3.90;;;9.50;99.90;;;;;;5036853;28;20491;-64
2023/11/16 00:14:20;;;;;;;4.90;4.10;;;9.40;99.90;;;;;;5027503;28;20476;-66
2023/11/16 00:16:50;;;;;;;5.00;4.50;;;9.40;99.90;;;;;;5037005;28;20498;-65
2023/11/16 00:19:19;;;;;;;8.60;4.53;;;9.40;99.90;;;;;;5038141;28;20482;-65
2023/11/16 00:21:47;;;;;;;7.33;5.20;;;9.40;99.90;;;;;;5034250;28;20502;-63
2023/11/16 00:24:15;;;;;;;6.67;4.30;;;9.40;99.90;;;;;;5035614;28;20581;-65
2023/11/16 00:26:44;;;;;;;7.33;4.93;;;9.40;99.90;;;;;;5037937;28;20537;-65
2023/11/16 00:29:11;;;;;;;6.60;4.33;;;9.40;99.90;;;;;;5033967;28;20506;-65
2023/11/16 00:31:39;;;;;;;6.23;4.30;;;9.30;99.90;;;;;;5035998;28;20498;-65
2023/11/16 00:34:10;;;;;;;6.43;4.77;;;9.30;99.90;;;;;;5034738;28;21089;-64
2023/11/16 00:36:39;;;;;;;4.67;4.23;;;9.30;99.90;;;;;;5036218;28;20478;-64
2023/11/16 00:39:08;;;;;;;7.60;4.77;;;9.40;99.90;;;;;;5035958;28;20479;-65
2023/11/16 00:41:36;;;;;;;5.23;4.73;;;9.40;99.90;;;;;;5039658;28;20490;-64
2023/11/16 00:44:05;;;;;;;5.53;4.30;;;9.40;99.90;;;;;;5037695;28;20484;-65
2023/11/16 00:46:36;;;;;;;4.37;4.00;;;9.40;99.90;;;;;;5038867;28;20470;-65
2023/11/16 00:49:04;;;;;;;6.07;3.83;;;9.40;99.90;;;;;;5035353;28;20487;-64
2023/11/16 00:51:33;;;;;;;4.77;3.70;;;9.40;99.90;;;;;;5038727;28;20489;-64
2023/11/16 00:54:01;;;;;;;6.70;4.27;;;9.40;99.90;;;;;;5034250;28;20463;-65
2023/11/16 00:56:30;;;;;;;7.37;4.70;;;9.40;99.90;;;;;;5038141;28;20875;-65
2023/11/16 00:58:58;;;;;;;7.70;4.67;;;9.40;99.90;;;;;;5031791;28;20477;-65
2023/11/16 01:01:29;;;;;;;5.33;3.87;;;9.50;99.90;;;;;;5034834;28;20503;-65
2023/11/16 01:03:57;;;;;;;7.07;3.97;;;9.40;99.90;;;;;;5040910;28;20531;-63
2023/11/16 01:06:25;;;;;;;4.43;4.00;;;9.40;99.90;;;;;;5038910;28;20482;-65
2023/11/16 01:08:56;;;;;;;7.63;5.00;;;9.40;99.90;;;;;;5036334;28;20490;-64
2023/11/16 01:11:27;;;;;;;12.03;5.60;;;9.40;99.90;;;;;;5032892;28;20901;-65
2023/11/16 01:13:56;;;;;;;5.10;4.40;;;9.40;99.90;;;;;;5035827;28;20471;-65
2023/11/16 01:16:30;;;;;;;6.63;4.70;;;9.40;99.90;;;;;;5036887;28;20470;-65
2023/11/16 01:19:00;;;;;;;7.20;4.97;;;9.40;99.90;;;;;;5034786;28;20514;-65
2023/11/16 01:21:29;;;;;;;5.30;4.27;;;9.40;99.90;;;;;;5032877;28;20482;-64
2023/11/16 01:24:03;;;;;;;7.67;5.10;;;9.40;99.90;;;;;;5038043;28;20478;-65
2023/11/16 01:26:35;;;;;;;8.27;4.83;;;9.40;99.90;;;;;;5038260;28;20469;-65
2023/11/16 01:29:08;;;;;;;18.90;5.60;;;9.40;99.90;;;;;;5038294;28;20895;-65
2023/11/16 01:31:37;;;;;;;7.83;4.30;;;9.40;99.90;;;;;;5042702;28;20548;-65
2023/11/16 01:34:08;;;;;;;7.97;5.23;;;9.40;99.90;;;;;;5038389;28;20479;-65
2023/11/16 01:36:36;;;;;;;6.30;3.80;;;9.40;99.90;;;;;;5038539;28;20919;-65
2023/11/16 01:39:06;;;;;;;5.57;3.83;;;9.40;99.90;;;;;;5037133;28;20500;-65
2023/11/16 01:41:35;;;;;;;5.10;3.67;;;9.50;99.90;;;;;;5038414;28;20551;-65
2023/11/16 01:44:03;;;;;;;5.83;3.83;;;9.50;99.90;;;;;;5036027;28;20571;-64
2023/11/16 01:46:33;;;;;;;6.67;4.37;;;9.50;99.90;;;;;;5042879;28;21963;-64
2023/11/16 01:49:04;;;;;;;6.90;3.83;;;9.50;99.90;;;;;;5051420;28;21022;-66
2023/11/16 01:51:35;;;;;;;5.87;3.70;;;9.50;99.90;;;;;;5053251;28;21622;-65
2023/11/16 01:54:07;;;;;;;4.63;3.20;;;9.50;99.90;;;;;;5047734;28;20952;-64
2023/11/16 01:56:36;;;;;;;4.57;3.50;;;9.40;99.90;;;;;;5042547;28;20964;-65
2023/11/16 01:59:06;;;;;;;5.07;3.60;;;9.50;99.90;;;;;;5041827;28;20505;-66
2023/11/16 02:01:36;;;;;;;3.83;3.53;;;9.40;99.90;;;;;;5041224;28;20470;-64
2023/11/16 02:04:05;;;;;;;4.90;3.30;;;9.40;99.90;;;;;;5042707;28;20470;-64
2023/11/16 02:06:39;;;;;;;3.80;3.50;;;9.40;99.90;;;;;;5042039;28;20562;-65
2023/11/16 02:09:09;;;;;;;5.00;3.70;;;9.40;99.90;;;;;;5042371;28;20485;-65
2023/11/16 02:11:38;;;;;;;6.13;4.13;;;9.40;99.90;;;;;;5036275;28;20513;-65
2023/11/16 02:14:06;;;;;;;7.53;3.90;;;9.40;99.90;;;;;;5036628;28;20466;-65
2023/11/16 02:16:35;;;;;;;7.00;3.70;;;9.30;99.90;;;;;;5034907;28;20569;-65
2023/11/16 02:19:17;;;;;;;5.63;2.87;;;9.30;99.90;;;;;;5036038;28;20478;-65
2023/11/16 02:21:46;;;;;;;5.33;2.70;;;9.30;99.90;;;;;;5038627;28;20584;-65
2023/11/16 02:24:16;;;;;;;3.67;2.30;;;9.30;99.90;;;;;;5039761;28;21541;-65
2023/11/16 02:26:44;;;;;;;4.60;2.23;;;9.30;99.90;;;;;;5040836;28;20498;-65
2023/11/16 02:29:12;;;;;;;7.43;2.57;;;9.20;99.90;;;;;;5041822;28;20584;-65
2023/11/16 02:31:40;;;;;;;2.83;2.30;;;9.20;99.90;;;;;;5039639;28;20546;-64
2023/11/16 02:34:08;;;;;;;1.73;1.33;;;9.20;99.90;;;;;;5038468;28;20469;-65
2023/11/16 02:36:36;;;;;;;4.23;1.67;;;9.20;99.90;;;;;;5035668;28;20562;-65
2023/11/16 02:39:06;;;;;;;3.17;1.43;;;9.10;99.90;;;;;;5033803;28;20591;-66
2023/11/16 02:41:38;;;;;;;2.80;1.73;;;9.20;99.90;;;;;;5037640;28;20558;-65
2023/11/16 02:44:07;;;;;;;2.37;1.53;;;9.20;99.90;;;;;;5035842;28;20498;-65
2023/11/16 02:46:35;;;;;;;3.50;1.30;;;9.20;99.90;;;;;;5038773;28;20475;-64
2023/11/16 02:49:03;;;;;;;4.10;1.60;;;9.20;99.90;;;;;;5039432;28;20569;-65
2023/11/16 02:51:31;;;;;;;3.90;1.33;;;9.20;99.90;;;;;;5033399;28;20881;-65
2023/11/16 02:54:02;;;;;;;5.90;1.80;;;9.10;99.90;;;;;;5037170;28;20892;-64
2023/11/16 02:56:30;;;;;;;3.33;1.33;;;9.10;99.90;;;;;;5036677;28;20477;-65
2023/11/16 02:58:59;;;;;;;4.03;1.10;;;9.10;99.90;;;;;;5037820;28;20479;-65
2023/11/16 03:01:29;;;;;;;3.97;1.20;;;9.10;99.90;;;;;;5035453;28;20488;-64
2023/11/16 03:03:57;;;;;;;2.27;1.17;;;9.00;99.90;;;;;;5039402;28;20487;-65
2023/11/16 03:06:26;;;;;;;2.47;1.37;;;9.10;99.90;;;;;;5036482;28;20471;-65
2023/11/16 03:08:54;;;;;;;2.90;1.23;;;9.10;99.90;;;;;;5040357;28;21043;-65
2023/11/16 03:11:22;;;;;;;1.30;1.10;;;9.00;99.90;;;;;;5039556;28;20502;-65
2023/11/16 03:13:50;;;;;;;4.67;1.30;;;9.00;99.90;;;;;;5037199;28;20485;-65
2023/11/16 03:16:21;;;;;;;3.90;1.00;;;9.00;99.90;;;;;;5038685;28;21038;-65
2023/11/16 03:18:49;;;;;;;3.87;1.20;;;9.00;99.90;;;;;;5040869;28;20478;-65
2023/11/16 03:21:18;;;;;;;2.13;1.03;;;9.00;99.90;;;;;;5035118;28;20466;-67
2023/11/16 03:23:46;;;;;;;1.67;1.00;;;8.90;99.90;;;;;;5038536;28;20525;-64
2023/11/16 03:26:14;;;;;;;2.93;1.33;;;9.00;99.90;;;;;;5041080;28;20465;-65
2023/11/16 03:28:42;;;;;;;3.43;1.37;;;9.00;99.90;;;;;;5035935;28;20490;-65
2023/11/16 03:31:13;;;;;;;2.30;1.50;;;9.00;99.90;;;;;;5036166;28;20474;-65
2023/11/16 03:33:43;;;;;;;4.57;1.50;;;8.90;99.90;;;;;;5037495;28;20984;-65
2023/11/16 03:36:13;;;;;;;2.80;1.40;;;8.90;99.90;;;;;;5038317;28;20543;-63
2023/11/16 03:38:41;;;;;;;4.10;1.70;;;8.90;99.90;;;;;;5040427;28;20470;-65
2023/11/16 03:41:10;;;;;;;3.30;1.40;;;8.80;99.90;;;;;;5041341;28;21071;-65
2023/11/16 03:43:40;;;;;;;2.90;1.60;;;8.70;99.90;;;;;;5038085;28;20875;-64
2023/11/16 03:46:09;;;;;;;1.43;1.00;;;8.70;99.90;;;;;;5040432;28;21056;-65
2023/11/16 03:48:37;;;;;;;1.57;0.70;;;8.60;99.90;;;;;;5033664;28;21034;-65
2023/11/16 03:51:07;;;;;;;1.33;0.70;;;8.40;99.90;;;;;;5036326;28;20604;-65
2023/11/16 03:53:36;;;;;;;1.30;0.60;;;8.30;99.90;;;;;;5040427;28;20821;-65
2023/11/16 03:56:05;;;;;;;1.63;0.60;;;8.30;99.90;;;;;;5038830;28;20535;-68
2023/11/16 03:58:33;;;;;;;0.90;0.53;;;8.20;99.90;;;;;;5036460;28;20570;-65
2023/11/16 04:01:10;;;;;;;1.33;0.50;;;8.20;99.90;;;;;;5048142;28;20463;-63
2023/11/16 04:03:39;;;;;;;1.23;0.70;;;8.10;99.90;;;;;;5048539;28;20494;-64
2023/11/16 04:06:18;;;;;;;0.70;0.60;;;8.00;99.90;;;;;;5041372;28;20530;-65
2023/11/16 04:08:51;;;;;;;0.67;0.53;;;8.00;99.90;;;;;;5037326;28;20483;-65
2023/11/16 04:11:19;;;;;;;1.10;0.60;;;8.00;99.90;;;;;;5041275;28;20855;-65
2023/11/16 04:13:47;;;;;;;2.10;0.60;;;7.90;99.90;;;;;;5040101;28;20467;-65
2023/11/16 04:16:23;;;;;;;0.90;0.70;;;7.90;99.90;;;;;;5037972;28;21026;-65
2023/11/16 04:18:52;;;;;;;7.27;0.73;;;7.80;99.90;;;;;;5036508;28;21013;-65
2023/11/16 04:21:25;;;;;;;1.27;0.60;;;7.90;99.90;;;;;;5040816;28;20514;-65
2023/11/16 04:23:56;;;;;;;0.50;0.40;;;7.80;99.90;;;;;;5039777;28;20498;-65
2023/11/16 04:26:25;;;;;;;0.80;0.50;;;7.70;99.90;;;;;;5039118;28;20561;-64
2023/11/16 04:28:56;;;;;;;1.10;0.73;;;7.60;99.90;;;;;;5040465;28;21253;-65
2023/11/16 04:31:25;;;;;;;1.33;0.50;;;7.50;99.90;;;;;;5040139;28;20536;-65
2023/11/16 04:33:54;;;;;;;0.97;0.50;;;7.50;99.90;;;;;;5039702;28;20484;-64
2023/11/16 04:36:24;;;;;;;0.60;0.60;;;7.50;99.90;;;;;;5037339;28;20466;-65
2023/11/16 04:38:55;;;;;;;1.10;0.60;;;7.50;99.90;;;;;;5039393;28;20846;-63
2023/11/16 04:41:24;;;;;;;0.50;0.40;;;7.50;99.90;;;;;;5035306;28;20474;-64
2023/11/16 04:43:54;;;;;;;0.80;0.60;;;7.40;99.90;;;;;;5035178;28;20498;-65
2023/11/16 04:46:23;;;;;;;0.63;0.63;;;7.40;99.90;;;;;;5038498;28;20562;-65
2023/11/16 04:48:51;;;;;;;0.70;0.70;;;7.40;99.90;;;;;;5037056;28;20477;-65
2023/11/16 04:51:20;;;;;;;1.57;0.80;;;7.30;99.90;;;;;;5037910;28;20538;-64
2023/11/16 04:53:51;;;;;;;0.83;0.83;;;7.30;99.90;;;;;;5033213;28;20542;-65
2023/11/16 04:56:24;;;;;;;2.00;0.90;;;7.30;99.90;;;;;;5039335;28;20498;-65
2023/11/16 04:58:52;;;;;;;1.13;0.80;;;7.30;99.90;;;;;;5040576;28;21051;-63
2023/11/16 05:01:23;;;;;;;0.97;0.97;;;7.30;99.90;;;;;;5032704;28;20478;-65
2023/11/16 05:03:55;;;;;;;1.10;1.10;;;7.30;99.90;;;;;;5039127;28;20483;-64
2023/11/16 05:06:26;;;;;;;1.67;0.90;;;7.30;99.90;;;;;;5041512;28;20478;-65
2023/11/16 05:08:55;;;;;;;0.70;0.70;;;7.20;99.90;;;;;;5038311;28;20915;-65
2023/11/16 05:11:24;;;;;;;2.07;0.93;;;7.20;99.90;;;;;;5039635;28;20466;-65
2023/11/16 05:13:53;;;;;;;2.00;0.80;;;7.10;99.90;;;;;;5039210;28;21037;-62
2023/11/16 05:16:26;;;;;;;1.17;0.80;;;7.10;99.90;;;;;;5038941;28;20478;-64
2023/11/16 05:18:55;;;;;;;1.13;0.90;;;7.00;99.90;;;;;;5036099;28;21760;-63
2023/11/16 05:21:23;;;;;;;1.00;0.90;;;7.00;99.90;;;;;;5035212;28;20477;-65
2023/11/16 05:23:51;;;;;;;0.90;0.90;;;7.00;99.90;;;;;;5029521;28;20495;-65
2023/11/16 05:26:20;;;;;;;1.70;1.10;;;7.00;99.90;;;;;;5036244;28;20554;-65
2023/11/16 05:28:48;;;;;;;1.90;1.03;;;6.90;99.90;;;;;;5035028;28;21027;-65
2023/11/16 05:31:16;;;;;;;1.53;1.40;;;6.90;99.90;;;;;;5038029;28;20589;-65
2023/11/16 05:33:44;;;;;;;1.60;1.50;;;6.90;99.90;;;;;;5035527;28;20561;-65
2023/11/16 05:36:12;;;;;;;1.60;1.50;;;6.90;99.90;;;;;;5036846;28;20477;-63
2023/11/16 05:38:40;;;;;;;1.37;1.27;;;6.90;99.90;;;;;;5035056;28;21029;-65
2023/11/16 05:41:08;;;;;;;1.90;1.60;;;6.90;99.90;;;;;;5036001;28;20470;-63
2023/11/16 05:43:39;;;;;;;1.20;1.10;;;6.80;99.90;;;;;;5037477;28;20879;-65
2023/11/16 05:46:07;;;;;;;1.23;1.13;;;6.80;99.90;;;;;;5037552;28;20532;-65
2023/11/16 05:48:35;;;;;;;1.10;1.00;;;6.70;99.90;;;;;;5034825;28;20486;-65
2023/11/16 05:51:04;;;;;;;1.70;1.20;;;6.70;99.90;;;;;;5035868;28;20493;-65
2023/11/16 05:53:32;;;;;;;1.27;1.17;;;6.70;99.90;;;;;;5036241;28;20536;-65
2023/11/16 05:56:00;;;;;;;1.17;1.07;;;6.70;99.90;;;;;;5034424;28;20499;-65
2023/11/16 05:58:28;;;;;;;0.87;0.70;;;6.70;99.90;;;;;;5040881;28;20578;-65
2023/11/16 06:00:58;;;;;;;5.90;1.10;;;6.60;99.90;;;;;;5041448;28;20506;-65
2023/11/16 06:03:27;;;;;;;3.43;1.13;;;6.60;99.90;;;;;;5042433;28;20577;-64
2023/11/16 06:05:57;;;;;;;2.87;1.43;;;6.70;99.90;;;;;;5038888;28;20573;-65
2023/11/16 06:08:25;;;;;;;1.20;1.10;;;6.60;99.90;;;;;;5026560;28;20497;-65
2023/11/16 06:10:53;;;;;;;1.60;1.50;;;6.60;99.90;;;;;;5034089;28;20474;-63
2023/11/16 06:13:22;;;;;;;2.30;1.80;;;6.60;99.90;;;;;;5055098;28;20512;-63
2023/11/16 06:15:52;;;;;;;1.70;1.10;;;6.50;99.90;;;;;;5051573;28;20466;-64
2023/11/16 06:18:26;;;;;;;4.13;1.53;;;6.50;99.90;;;;;;5036326;28;20569;-65
2023/11/16 06:20:54;;;;;;;1.43;1.27;;;6.50;99.90;;;;;;5031609;28;20473;-64
2023/11/16 06:23:22;;;;;;;1.77;1.50;;;6.40;99.90;;;;;;5040322;28;20514;-64
2023/11/16 06:25:53;;;;;;;1.70;1.60;;;6.40;99.90;;;;;;5032617;28;21094;-65
2023/11/16 06:28:22;;;;;;;1.93;1.83;;;6.40;99.90;;;;;;5033748;28;20483;-65
2023/11/16 06:30:51;;;;;;;2.53;2.00;;;6.40;99.90;;;;;;5040079;28;20475;-65
2023/11/16 06:33:21;;;;;;;1.80;1.60;;;6.40;99.90;;;;;;5035148;28;20624;-65
2023/11/16 06:35:51;;;;;;;1.77;1.67;;;6.40;99.90;;;;;;5039774;28;20473;-64
2023/11/16 06:38:19;;;;;;;2.80;1.80;;;6.20;99.90;;;;;;5037927;28;20566;-62
2023/11/16 06:40:47;;;;;;;1.83;1.73;;;6.20;99.90;;;;;;5036096;28;20476;-62
2023/11/16 06:43:15;;;;;;;1.77;1.57;;;6.10;99.90;;;;;;5036392;28;20621;-63
2023/11/16 06:45:45;;;;;;;1.80;1.70;;;6.10;99.90;;;;;;5038312;28;20570;-62
2023/11/16 06:48:15;;;;;;;1.80;1.70;;;6.10;99.90;;;;;;5036514;28;20494;-63
2023/11/16 06:50:45;;;;;;;1.70;1.47;;;6.00;99.90;;;;;;5034463;28;20478;-63
2023/11/16 06:53:15;;;;;;;1.60;1.50;;;6.00;99.90;;;;;;5039028;28;20485;-63
2023/11/16 06:55:44;;;;;;;1.60;1.50;;;6.00;99.90;;;;;;5040072;28;20508;-62
2023/11/16 06:58:12;;;;;;;1.60;1.50;;;6.00;99.90;;;;;;5036198;28;20573;-63
2023/11/16 07:00:40;;;;;;;1.13;1.03;;;5.90;99.90;;;;;;5040457;28;20507;-63
2023/11/16 07:03:09;;;;;;;3.40;1.53;;;6.00;99.90;;;;;;5035758;28;20499;-67
2023/11/16 07:05:38;;;;;;;1.50;1.40;;;6.00;99.90;;;;;;5037433;28;20480;-65
2023/11/16 07:08:06;;;;;;;1.40;1.30;;;6.00;99.90;;;;;;5038955;28;20487;-67
2023/11/16 07:10:36;;;;;;;1.37;1.27;;;5.90;99.90;;;;;;5036650;28;20501;-67
2023/11/16 07:13:04;;;;;;;1.30;1.20;;;5.90;99.90;;;;;;5037625;28;20519;-68
2023/11/16 07:15:32;;;;;;;1.33;1.23;;;5.90;99.90;;;;;;5037620;28;20506;-68
2023/11/16 07:18:04;;;;;;;1.20;1.20;;;5.90;99.90;;;;;;5039182;28;20481;-66
2023/11/16 07:20:35;;;;;;;1.20;1.10;;;5.90;99.90;;;;;;5034979;28;20572;-64
2023/11/16 07:23:03;;;;;;;0.97;0.97;;;5.90;99.90;;;;;;5039477;28;20482;-64
2023/11/16 07:25:32;;;;;;;1.47;1.27;;;5.90;99.90;;;;;;5036772;28;21318;-64
2023/11/16 07:28:02;;;;;;;1.40;1.30;;;5.90;99.90;;;;;;5038074;28;21152;-66
2023/11/16 07:30:30;;;;;;;1.60;1.10;;;5.90;99.90;;;;;;5037250;28;20467;-65
2023/11/16 07:32:59;;;;;;;1.30;1.20;;;5.80;99.90;;;;;;5037283;28;20559;-64
2023/11/16 07:35:33;;;;;;;1.30;1.20;;;5.80;99.90;;;;;;5038744;28;20483;-64
2023/11/16 07:38:01;;;;;;;1.50;1.40;;;5.80;99.90;;;;;;5035857;28;20565;-64
2023/11/16 07:40:29;;;;;;;1.27;1.13;;;5.80;99.90;;;;;;5034140;28;20485;-65
2023/11/16 07:42:58;;;;;;;1.50;1.30;;;5.80;99.90;;;;;;5038674;28;20490;-64
2023/11/16 07:45:28;;;;;;;1.30;1.20;;;5.80;99.90;;;;;;5039563;28;21057;-64
2023/11/16 07:47:59;;;;;;;1.67;1.57;;;5.80;99.90;;;;;;5039619;28;20500;-64
2023/11/16 07:50:31;;;;;;;1.63;1.53;;;5.90;99.90;;;;;;5038527;28;20491;-64
2023/11/16 07:53:00;;;;;;;1.30;1.20;;;5.90;99.90;;;;;;5040208;28;20544;-64
2023/11/16 07:55:29;;;;;;;3.40;1.60;;;5.90;99.90;;;;;;5036982;28;20988;-64
2023/11/16 07:57:57;;;;;;;2.30;1.60;;;5.90;99.90;;;;;;5033304;28;20489;-64
2023/11/16 08:00:30;;;;;;;1.43;1.33;;;6.00;99.90;;;;;;5033490;28;20979;-64
2023/11/16 08:05:46;;;;;;;1.20;1.10;;;6.00;99.90;;;;;;5033512;28;20498;-65
2023/11/16 08:08:18;;;;;;;1.23;1.13;;;6.00;99.90;;;;;;5033712;28;20470;-65
2023/11/16 08:10:48;;;;;;;1.33;1.23;;;5.90;99.90;;;;;;5030604;28;20474;-64
2023/11/16 08:13:17;;;;;;;1.83;1.23;;;6.00;99.90;;;;;;5037422;28;20482;-67
2023/11/16 08:15:52;;;;;;;1.30;1.20;;;6.00;99.90;;;;;;5039103;28;20913;-63
2023/11/16 08:18:21;;;;;;;1.40;1.30;;;6.00;99.90;;;;;;5038927;28;20477;-64
2023/11/16 08:20:49;;;;;;;2.40;1.80;;;6.00;99.90;;;;;;5039860;28;20502;-64
2023/11/16 08:23:18;;;;;;;1.50;1.40;;;6.10;99.90;;;;;;5060411;28;20497;-64
2023/11/16 08:25:47;;;;;;;2.10;1.70;;;6.00;99.90;;;;;;5054837;28;21103;-63
2023/11/16 08:28:16;;;;;;;2.10;1.90;;;6.10;99.90;;;;;;5035516;28;20494;-63
2023/11/16 08:30:46;;;;;;;2.67;1.80;;;6.10;99.90;;;;;;5033328;28;20940;-61
2023/11/16 08:33:14;;;;;;;2.17;1.80;;;6.10;99.90;;;;;;5033559;28;21443;-62
2023/11/16 08:35:43;;;;;;;3.57;2.10;;;6.10;99.90;;;;;;5032643;28;20984;-63
2023/11/16 08:38:14;;;;;;;2.07;1.97;;;6.10;99.90;;;;;;5034115;28;20482;-63
2023/11/16 08:40:43;;;;;;;2.20;2.00;;;6.10;99.90;;;;;;5029339;28;20541;-62
2023/11/16 08:43:11;;;;;;;2.90;2.70;;;6.20;99.90;;;;;;5022649;28;20499;-62
2023/11/16 08:45:42;;;;;;;2.07;1.97;;;6.20;99.90;;;;;;5023814;28;20493;-62
2023/11/16 08:48:16;;;;;;;1.70;1.60;;;6.20;99.90;;;;;;5031553;28;20493;-63
2023/11/16 08:50:48;;;;;;;1.60;1.50;;;6.20;99.90;;;;;;5033248;28;20474;-62
2023/11/16 08:53:16;;;;;;;2.30;2.10;;;6.20;99.90;;;;;;5032678;28;20493;-61
2023/11/16 08:55:44;;;;;;;1.63;1.53;;;6.30;99.90;;;;;;5036619;28;20463;-63
2023/11/16 08:58:14;;;;;;;1.70;1.60;;;6.30;99.90;;;;;;5035771;28;20485;-63
2023/11/16 09:00:45;;;;;;;1.80;1.70;;;6.30;99.90;;;;;;5036445;28;21026;-62
2023/11/16 09:03:16;;;;;;;2.77;1.77;;;6.40;99.90;;;;;;5040528;28;20501;-62
2023/11/16 09:05:45;;;;;;;1.73;1.47;;;6.30;99.90;;;;;;5036303;28;20511;-63
2023/11/16 09:08:13;;;;;;;1.63;1.53;;;6.30;99.90;;;;;;5039308;28;21441;-63
2023/11/16 09:10:43;;;;;;;1.60;1.10;;;6.30;99.90;;;;;;5039249;28;20476;-63
2023/11/16 09:13:11;;;;;;;2.30;1.57;;;6.30;99.90;;;;;;5032856;28;20527;-62
2023/11/16 09:15:41;;;;;;;1.60;1.50;;;6.30;99.90;;;;;;5036854;28;20837;-63
2023/11/16 09:18:09;;;;;;;2.33;1.77;;;6.30;99.90;;;;;;5035888;28;20547;-63
2023/11/16 09:20:40;;;;;;;1.40;1.30;;;6.30;99.90;;;;;;5038906;28;21837;-62
2023/11/16 09:23:10;;;;;;;1.10;1.00;;;6.30;99.90;;;;;;5034829;28;20517;-63
2023/11/16 09:25:40;;;;;;;1.27;1.23;;;6.40;99.90;;;;;;5038663;28;20471;-62
2023/11/16 09:28:11;;;;;;;1.50;1.40;;;6.40;99.90;;;;;;5041603;28;20579;-63
2023/11/16 09:30:43;;;;;;;1.20;1.10;;;6.30;99.90;;;;;;5041646;28;20950;-62
2023/11/16 09:33:12;;;;;;;1.27;0.97;;;6.30;99.90;;;;;;5042364;28;20505;-62
2023/11/16 09:35:42;;;;;;;1.03;0.97;;;6.30;99.90;;;;;;5041564;28;20561;-63
2023/11/16 09:38:10;;;;;;;1.40;1.30;;;6.20;99.90;;;;;;5042620;28;20573;-63
2023/11/16 09:40:39;;;;;;;1.20;1.10;;;6.20;99.90;;;;;;5041833;28;20474;-63
2023/11/16 09:45:55;;;;;;;1.50;1.40;;;6.20;99.90;;;;;;5038670;28;20490;-63
2023/11/16 09:48:23;;;;;;;3.37;1.87;;;6.20;99.90;;;;;;5039546;28;20488;-62
2023/11/16 09:50:54;;;;;;;1.70;1.60;;;6.30;99.90;;;;;;5043886;28;20473;-62
2023/11/16 09:53:26;;;;;;;2.03;1.93;;;6.20;99.90;;;;;;5033698;28;20573;-63
2023/11/16 09:55:57;;;;;;;2.23;2.03;;;6.30;99.90;;;;;;5041930;28;21025;-62
2023/11/16 09:58:28;;;;;;;2.30;2.10;;;6.30;99.90;;;;;;5039035;28;20856;-63
2023/11/16 10:00:57;;;;;;;1.90;1.80;;;6.20;99.90;;;;;;5041466;28;20478;-63
2023/11/16 10:03:30;;;;;;;1.73;1.63;;;6.30;99.90;;;;;;5042201;28;21022;-62
2023/11/16 10:06:01;;;;;;;1.93;1.83;;;6.20;99.90;;;;;;5041782;28;20466;-63
2023/11/16 10:08:29;;;;;;;1.83;1.73;;;6.20;99.90;;;;;;5039424;28;20470;-63
2023/11/16 10:11:01;;;;;;;1.80;1.70;;;6.20;99.90;;;;;;5040128;28;20510;-62
2023/11/16 10:13:29;;;;;;;1.40;1.30;;;6.20;99.90;;;;;;5042472;28;20572;-62
2023/11/16 10:16:02;;;;;;;1.40;1.30;;;6.10;99.90;;;;;;5040182;28;20549;-64
2023/11/16 10:18:31;;;;;;;1.60;1.50;;;6.10;99.90;;;;;;5040867;28;20557;-62
2023/11/16 10:21:00;;;;;;;1.50;1.40;;;6.10;99.90;;;;;;5039188;28;20507;-63
2023/11/16 10:23:29;;;;;;;1.47;1.37;;;6.10;99.90;;;;;;5038346;28;21074;-63
2023/11/16 10:25:59;;;;;;;1.30;1.20;;;6.10;99.90;;;;;;5043901;28;20843;-63
2023/11/16 10:28:28;;;;;;;1.10;1.10;;;6.10;99.90;;;;;;5038005;28;20492;-62
2023/11/16 10:30:57;;;;;;;1.70;1.17;;;6.10;99.90;;;;;;5039530;28;20927;-62
2023/11/16 10:33:29;;;;;;;1.10;1.00;;;6.10;99.90;;;;;;5056887;28;20478;-61
2023/11/16 10:36:00;;;;;;;1.17;1.10;;;6.10;99.90;;;;;;5062524;28;20471;-62
2023/11/16 10:38:29;;;;;;;1.00;1.00;;;6.20;99.90;;;;;;5046146;28;20478;-62
2023/11/16 10:40:58;;;;;;;1.90;1.17;;;6.20;99.90;;;;;;5046126;28;20890;-63
2023/11/16 10:43:27;;;;;;;1.20;1.00;;;6.20;99.90;;;;;;5039697;28;20514;-63
2023/11/16 10:45:59;;;;;;;2.30;1.10;;;6.30;99.90;;;;;;5041266;28;20981;-62
2023/11/16 10:48:28;;;;;;;3.37;1.10;;;6.30;99.90;;;;;;5038053;28;20496;-63
2023/11/16 10:50:59;;;;;;;0.97;0.90;;;6.40;99.90;;;;;;5042151;28;20477;-63
2023/11/16 10:53:33;;;;;;;0.80;0.80;;;6.40;99.90;;;;;;5044294;28;20581;-63
2023/11/16 10:56:07;;;;;;;0.80;0.80;;;6.50;99.90;;;;;;5044878;28;20473;-62
2023/11/16 10:58:39;;;;;;;1.27;0.90;;;6.50;99.90;;;;;;5050837;28;20467;-62
2023/11/16 11:01:11;;;;;;;1.47;1.10;;;6.50;99.90;;;;;;5051009;28;20459;-63
2023/11/16 11:03:44;;;;;;;1.20;0.90;;;6.50;99.90;;;;;;5050387;28;20508;-63
2023/11/16 11:06:18;;;;;;;0.90;0.90;;;6.50;99.90;;;;;;5040431;28;20529;-63
2023/11/16 11:08:48;;;;;;;1.97;0.80;;;6.40;99.90;;;;;;5042090;28;20528;-63
2023/11/16 11:11:24;;;;;;;0.80;0.80;;;6.40;99.90;;;;;;5042203;28;20485;-62
2023/11/16 11:13:54;;;;;;;0.90;0.90;;;6.40;99.90;;;;;;5036817;28;20567;-62
2023/11/16 11:16:25;;;;;;;0.80;0.80;;;6.40;99.90;;;;;;5038158;28;20478;-62
2023/11/16 11:18:53;;;;;;;1.30;1.20;;;6.50;99.90;;;;;;5035369;28;21027;-62
2023/11/16 11:21:26;;;;;;;1.00;0.90;;;6.50;99.90;;;;;;5038237;28;20466;-63
2023/11/16 11:24:04;;;;;;;0.97;0.97;;;6.50;99.90;;;;;;5037085;28;20478;-62
2023/11/16 11:26:43;;;;;;;0.90;0.90;;;6.50;99.90;;;;;;5037978;28;20493;-62
2023/11/16 11:29:12;;;;;;;1.07;0.97;;;6.50;99.90;;;;;;5035599;28;20532;-63
2023/11/16 11:32:00;;;;;;;1.17;1.07;;;6.50;99.90;;;;;;5039039;28;20582;-63
2023/11/16 11:34:31;;;;;;;1.60;1.50;;;6.60;99.90;;;;;;5037836;28;20478;-62
2023/11/16 11:37:01;;;;;;;1.10;1.00;;;6.70;99.90;;;;;;5039780;28;21051;-63
2023/11/16 11:39:39;;;;;;;1.13;1.00;;;6.80;99.90;;;;;;5035235;28;20582;-62
2023/11/16 11:42:09;;;;;;;1.10;1.00;;;6.90;99.90;;;;;;5038994;28;20497;-63
2023/11/16 11:44:37;;;;;;;1.10;1.00;;;7.00;99.90;;;;;;5038222;28;20843;-63
2023/11/16 11:47:06;;;;;;;0.93;0.93;;;7.10;99.90;;;;;;5040262;28;20501;-63
2023/11/16 11:49:34;;;;;;;0.90;0.90;;;7.10;99.90;;;;;;5039891;28;20478;-63
2023/11/16 11:52:04;;;;;;;1.10;1.00;;;7.10;99.90;;;;;;5038936;28;20998;-62
2023/11/16 11:54:40;;;;;;;0.87;0.87;;;7.10;99.90;;;;;;5040499;28;20498;-63
2023/11/16 11:57:09;;;;;;;1.00;1.00;;;7.00;99.90;;;;;;5037476;28;20521;-62
2023/11/16 11:59:37;;;;;;;1.20;1.10;;;7.00;99.90;;;;;;5038205;28;20609;-63
2023/11/16 12:02:07;;;;;;;1.27;1.17;;;6.90;99.90;;;;;;5034396;28;20532;-62
2023/11/16 12:04:36;;;;;;;1.10;1.10;;;6.90;99.90;;;;;;5034370;28;20482;-63
2023/11/16 12:07:07;;;;;;;1.30;1.20;;;6.80;99.90;;;;;;5038291;28;20502;-63
2023/11/16 12:09:38;;;;;;;1.33;1.23;;;6.80;99.90;;;;;;5038016;28;20486;-63
2023/11/16 12:12:07;;;;;;;1.50;1.40;;;6.90;99.90;;;;;;5037281;28;20870;-63
2023/11/16 12:14:38;;;;;;;1.47;1.37;;;6.90;99.90;;;;;;5034078;28;20466;-63
2023/11/16 12:17:15;;;;;;;1.40;1.30;;;6.90;99.90;;;;;;5036302;28;20478;-62
2023/11/16 12:19:47;;;;;;;1.47;1.37;;;7.00;99.90;;;;;;5039975;28;21042;-63
2023/11/16 12:22:16;;;;;;;1.40;1.30;;;7.10;99.90;;;;;;5038933;28;20972;-63
2023/11/16 12:24:47;;;;;;;1.47;1.33;;;7.20;99.90;;;;;;5037805;28;20466;-63
2023/11/16 12:27:16;;;;;;;1.40;1.07;;;7.20;99.90;;;;;;5037226;28;20470;-62
2023/11/16 12:29:54;;;;;;;1.30;1.20;;;7.30;99.90;;;;;;5035592;28;20491;-63
2023/11/16 12:32:22;;;;;;;1.20;1.10;;;7.50;99.90;;;;;;5036892;28;20497;-62
2023/11/16 12:34:51;;;;;;;1.00;1.00;;;7.70;99.90;;;;;;5036717;28;20557;-62
2023/11/16 12:37:19;;;;;;;1.30;1.20;;;7.90;99.90;;;;;;5039391;28;20531;-63
2023/11/16 12:39:50;;;;;;;1.17;1.07;;;8.00;99.90;;;;;;5038006;28;20890;-62
2023/11/16 12:42:20;;;;;;;1.00;1.00;;;8.00;99.90;;;;;;5038982;28;20569;-63
2023/11/16 12:44:49;;;;;;;1.50;1.40;;;8.10;99.90;;;;;;5042692;28;20470;-63
2023/11/16 12:47:17;;;;;;;1.27;1.17;;;8.00;99.90;;;;;;5060544;28;20465;-65
2023/11/16 12:49:51;;;;;;;1.03;1.03;;;7.80;99.90;;;;;;5045932;28;20882;-63
2023/11/16 12:52:20;;;;;;;1.10;1.10;;;7.80;99.90;;;;;;5038415;28;20568;-62
2023/11/16 12:54:51;;;;;;;0.90;0.90;;;7.80;99.90;;;;;;5039460;28;20561;-63
2023/11/16 12:57:20;;;;;;;1.20;1.20;;;7.70;99.90;;;;;;5037103;28;20891;-62
2023/11/16 12:59:48;;;;;;;1.23;1.17;;;7.60;99.90;;;;;;5038955;28;20566;-62
2023/11/16 13:02:17;;;;;;;1.00;1.00;;;7.60;99.90;;;;;;5037324;28;20513;-62
2023/11/16 13:04:45;;;;;;;1.03;1.03;;;7.50;99.90;;;;;;5028311;28;20933;-62
2023/11/16 13:07:13;;;;;;;1.23;1.13;;;7.50;99.90;;;;;;5034895;28;20482;-62
2023/11/16 13:09:41;;;;;;;1.23;1.17;;;7.50;99.90;;;;;;5038553;28;20486;-63
2023/11/16 13:12:11;;;;;;;1.47;1.00;;;7.50;99.90;;;;;;5037525;28;20487;-63
2023/11/16 13:14:49;;;;;;;1.07;1.00;;;7.50;99.90;;;;;;5034188;28;20604;-61
2023/11/16 13:17:17;;;;;;;0.87;0.87;;;7.40;99.90;;;;;;5035469;28;20477;-63